Time;durP1;ratioP1;P1;durP2;ratioP2;P2;SDS_P1;SDS_P2;PMS_P1;PMS_P2;Temp;Humidity;BMP_temperature;BMP_pressure;BME280_temperature;BME280_humidity;BME280_pressure;Samples;Min_cycle;Max_cycle;Signal;HPM_P1;HPM_P2
2022/08/24 00:02:06;;;;;;;3.17;1.83;;;;;;;26.00;40.72;99960.50;5049674;28;20049;-85
2022/08/24 00:04:37;;;;;;;8.55;1.85;;;;;;;25.97;41.19;99962.72;5050056;28;20581;-85
2022/08/24 00:07:06;;;;;;;5.00;2.08;;;;;;;25.91;42.03;99963.47;5051358;28;20053;-85
2022/08/24 00:09:56;;;;;;;3.40;1.65;;;;;;;25.83;41.41;99959.81;5051082;28;20114;-85
2022/08/24 00:12:23;;;;;;;3.13;1.75;;;;;;;25.79;41.64;99963.91;5050402;28;20053;-87
2022/08/24 00:14:49;;;;;;;4.40;1.67;;;;;;;25.73;41.73;99957.41;5053445;28;20140;-86
2022/08/24 00:17:16;;;;;;;3.90;1.67;;;;;;;25.66;41.42;99952.91;5054647;28;20057;-87
2022/08/24 00:19:43;;;;;;;3.33;1.88;;;;;;;25.59;41.52;99959.03;5052701;28;20053;-86
2022/08/24 00:22:09;;;;;;;4.65;1.63;;;;;;;25.55;41.83;99963.09;5052939;28;20053;-86
2022/08/24 00:24:36;;;;;;;3.20;1.85;;;;;;;25.49;42.70;99958.44;5053182;28;20052;-86
2022/08/24 00:27:05;;;;;;;2.10;1.50;;;;;;;25.44;41.82;99964.34;5052844;28;20049;-86
2022/08/24 00:29:32;;;;;;;3.15;1.90;;;;;;;25.40;41.54;99964.88;5053857;28;20052;-86
2022/08/24 00:31:59;;;;;;;8.35;2.22;;;;;;;25.35;42.11;99958.16;5054356;28;20060;-86
2022/08/24 00:34:26;;;;;;;2.60;1.52;;;;;;;25.31;42.23;99964.94;5052978;28;20102;-87
2022/08/24 00:36:53;;;;;;;2.70;1.88;;;;;;;25.28;42.60;99957.22;5054161;28;20418;-87
2022/08/24 00:39:20;;;;;;;2.53;1.42;;;;;;;25.26;41.68;99961.94;5053780;28;20060;-86
2022/08/24 00:41:48;;;;;;;1.92;1.55;;;;;;;25.22;41.95;99956.09;5054032;28;20107;-86
2022/08/24 00:44:17;;;;;;;3.05;1.88;;;;;;;25.20;42.88;99955.41;5053981;28;20068;-86
2022/08/24 00:46:51;;;;;;;2.92;1.38;;;;;;;25.17;41.91;99963.88;5053947;28;20059;-86
2022/08/24 00:49:39;;;;;;;4.60;1.65;;;;;;;25.13;42.05;99961.69;5053614;28;20453;-86
2022/08/24 00:52:07;;;;;;;3.08;1.60;;;;;;;25.16;42.10;99962.19;5052636;28;20402;-86
2022/08/24 00:54:39;;;;;;;4.65;1.80;;;;;;;25.14;42.88;99960.69;5053680;28;20056;-86
2022/08/24 00:57:17;;;;;;;5.13;1.77;;;;;;;25.14;41.88;99957.97;5053624;28;20048;-86
2022/08/24 00:59:53;;;;;;;2.55;1.40;;;;;;;25.13;41.90;99961.69;5052056;28;20056;-87
2022/08/24 01:02:26;;;;;;;2.72;1.60;;;;;;;25.12;42.51;99955.50;5052396;28;20106;-87
2022/08/24 01:04:58;;;;;;;2.22;1.50;;;;;;;25.13;41.45;99961.69;5053679;28;20480;-86
2022/08/24 01:07:27;;;;;;;2.93;1.47;;;;;;;25.13;41.54;99957.16;5053518;28;20049;-86
2022/08/24 01:10:07;;;;;;;3.28;1.60;;;;;;;25.11;41.49;99961.88;5054000;28;20288;-88
2022/08/24 01:12:36;;;;;;;3.97;1.70;;;;;;;25.13;41.73;99962.56;5053783;28;20056;-83
2022/08/24 01:15:06;;;;;;;4.10;1.45;;;;;;;25.11;42.14;99954.66;5053544;28;20060;-84
2022/08/24 01:20:22;;;;;;;2.97;1.60;;;;;;;25.09;41.96;99956.66;5052981;28;20506;-84
2022/08/24 01:23:41;;;;;;;1.85;1.40;;;;;;;25.02;41.90;99957.56;5053199;28;20091;-84
2022/08/24 01:26:12;;;;;;;10.80;1.30;;;;;;;25.04;41.55;99950.97;4991073;28;20046;-84
2022/08/24 01:28:44;;;;;;;2.65;1.60;;;;;;;25.02;41.52;99961.09;5050854;28;20136;-83
2022/08/24 01:31:12;;;;;;;3.78;1.55;;;;;;;24.98;41.15;99962.47;5052915;28;20060;-85
2022/08/24 01:33:39;;;;;;;3.58;1.40;;;;;;;24.96;40.98;99959.09;5051737;28;20391;-84
2022/08/24 01:36:19;;;;;;;4.82;1.48;;;;;;;24.91;40.96;99958.81;5051576;28;20572;-83
2022/08/24 01:38:54;;;;;;;4.82;1.50;;;;;;;24.92;41.26;99952.41;5053024;28;20053;-84
2022/08/24 01:41:21;;;;;;;3.03;1.30;;;;;;;24.92;41.10;99955.09;5052854;28;20057;-84
2022/08/24 01:43:54;;;;;;;2.90;1.50;;;;;;;24.91;41.93;99953.41;5052809;28;20049;-86
2022/08/24 01:46:20;;;;;;;2.63;1.48;;;;;;;24.89;41.73;99948.22;5052458;28;20068;-86
2022/08/24 01:48:47;;;;;;;5.55;1.50;;;;;;;24.88;41.74;99951.91;5052578;28;20498;-86
2022/08/24 01:51:13;;;;;;;2.83;1.48;;;;;;;24.88;41.71;99956.44;5052805;28;20056;-86
2022/08/24 01:53:40;;;;;;;4.82;1.52;;;;;;;24.87;42.14;99957.47;5052974;28;20560;-85
2022/08/24 01:56:07;;;;;;;2.42;1.40;;;;;;;24.84;41.55;99962.22;5054448;28;20110;-85
2022/08/24 01:58:33;;;;;;;3.28;1.17;;;;;;;24.83;41.96;99963.22;5054135;28;20068;-84
2022/08/24 02:01:00;;;;;;;2.13;1.50;;;;;;;24.83;41.06;99959.66;5053867;28;20461;-85
2022/08/24 02:03:27;;;;;;;3.05;1.40;;;;;;;24.82;41.53;99968.75;5053746;28;20107;-85
2022/08/24 02:05:56;;;;;;;2.72;1.35;;;;;;;24.81;41.55;99962.53;5054170;28;20480;-86
2022/08/24 02:08:22;;;;;;;2.13;1.20;;;;;;;24.82;40.85;99972.28;5053862;28;20052;-83
2022/08/24 02:10:49;;;;;;;2.90;1.60;;;;;;;24.84;41.21;99974.81;5055574;28;20049;-87
2022/08/24 02:13:22;;;;;;;2.22;1.25;;;;;;;24.84;41.24;99970.28;5054624;28;20783;-87
2022/08/24 02:15:49;;;;;;;4.53;1.60;;;;;;;24.85;40.80;99971.97;5054712;28;20052;-86
2022/08/24 02:18:16;;;;;;;2.00;1.33;;;;;;;24.89;40.57;99974.31;5053693;28;20064;-86
2022/08/24 02:20:44;;;;;;;2.45;1.40;;;;;;;24.90;41.64;99976.84;5053566;28;20049;-86
2022/08/24 02:23:10;;;;;;;1.88;1.48;;;;;;;24.92;41.21;99966.72;5054257;28;20060;-86
2022/08/24 02:25:37;;;;;;;2.78;1.58;;;;;;;24.94;41.12;99961.16;5054429;28;20095;-86
2022/08/24 02:28:04;;;;;;;2.33;1.60;;;;;;;24.95;41.24;99968.19;5052505;28;20458;-86
2022/08/24 02:30:31;;;;;;;2.42;1.50;;;;;;;24.95;41.65;99963.66;5052322;28;20546;-86
2022/08/24 02:32:59;;;;;;;2.25;1.40;;;;;;;24.94;41.22;99966.53;5051579;28;20057;-86
2022/08/24 02:35:28;;;;;;;3.38;1.50;;;;;;;24.92;41.10;99961.31;5053491;28;20102;-86
2022/08/24 02:37:54;;;;;;;1.98;1.35;;;;;;;24.91;40.87;99970.44;5054093;28;20056;-86
2022/08/24 02:40:21;;;;;;;3.05;1.63;;;;;;;24.88;40.36;99968.06;5052638;28;20057;-86
2022/08/24 02:42:48;;;;;;;4.10;1.55;;;;;;;24.85;40.04;99969.28;5051131;28;20056;-86
2022/08/24 02:45:15;;;;;;;3.00;1.23;;;;;;;24.83;40.91;99965.91;5052141;28;20048;-86
2022/08/24 02:47:41;;;;;;;2.33;1.50;;;;;;;24.80;40.42;99968.94;5051948;28;20053;-86
2022/08/24 02:50:11;;;;;;;2.35;1.42;;;;;;;24.76;39.94;99962.22;5051610;28;20052;-86
2022/08/24 02:52:39;;;;;;;4.75;1.75;;;;;;;24.74;39.83;99966.94;5053076;28;20045;-86
2022/08/24 02:55:08;;;;;;;1.42;1.25;;;;;;;24.71;40.16;99968.13;5053977;28;20060;-86
2022/08/24 02:57:35;;;;;;;4.20;1.65;;;;;;;24.69;40.15;99970.16;5053190;28;20064;-86
2022/08/24 03:00:09;;;;;;;2.53;1.60;;;;;;;24.66;40.03;99977.72;5052150;28;20132;-86
2022/08/24 03:02:36;;;;;;;1.95;1.55;;;;;;;24.66;40.34;99966.97;5052811;28;20056;-86
2022/08/24 03:05:04;;;;;;;2.75;1.58;;;;;;;24.64;40.58;99969.84;5052925;28;20045;-86
2022/08/24 03:07:31;;;;;;;6.00;2.00;;;;;;;24.62;41.08;99979.94;5052694;28;20060;-87
2022/08/24 03:09:57;;;;;;;3.85;1.95;;;;;;;24.60;41.61;99968.53;5053361;28;20072;-86
2022/08/24 03:12:24;;;;;;;2.80;1.50;;;;;;;24.56;41.47;99977.97;5050333;28;20057;-86
2022/08/24 03:14:51;;;;;;;3.65;1.50;;;;;;;24.53;41.61;99973.75;5051960;28;20063;-86
2022/08/24 03:17:18;;;;;;;3.92;1.38;;;;;;;24.49;41.39;99979.66;5050458;28;20369;-86
2022/08/24 03:19:44;;;;;;;2.70;1.70;;;;;;;24.46;41.55;99987.06;5050569;28;20045;-87
2022/08/24 03:22:12;;;;;;;1.75;1.20;;;;;;;24.40;41.74;99977.00;5051703;28;20059;-86
2022/08/24 03:24:38;;;;;;;4.07;1.70;;;;;;;24.38;41.02;99986.25;5051906;28;20068;-86
2022/08/24 03:27:05;;;;;;;4.68;1.15;;;;;;;24.34;41.09;99975.81;5052696;28;20061;-87
2022/08/24 03:29:34;;;;;;;3.40;1.80;;;;;;;24.30;41.21;99971.81;5053770;28;20057;-87
2022/08/24 03:32:01;;;;;;;2.40;1.95;;;;;;;24.29;41.58;99985.44;5053124;28;20055;-87
2022/08/24 03:34:27;;;;;;;2.40;1.63;;;;;;;24.26;41.17;99983.91;5052030;28;20065;-87
2022/08/24 03:36:54;;;;;;;5.05;1.77;;;;;;;24.23;41.50;99980.75;5054041;28;20049;-85
2022/08/24 03:39:21;;;;;;;2.75;1.70;;;;;;;24.22;41.83;99984.44;5054105;28;20045;-86
2022/08/24 03:41:47;;;;;;;2.85;1.75;;;;;;;24.20;41.40;99979.25;5055043;28;20561;-86
2022/08/24 03:44:14;;;;;;;3.70;1.90;;;;;;;24.20;41.18;99981.94;5054845;28;20048;-86
2022/08/24 03:46:41;;;;;;;5.45;1.77;;;;;;;24.18;41.39;99976.72;5054558;28;20075;-86
2022/08/24 03:49:08;;;;;;;5.40;1.85;;;;;;;24.17;41.16;99979.56;5052443;28;20064;-87
2022/08/24 03:51:36;;;;;;;6.05;2.30;;;;;;;24.16;41.58;99981.44;5051603;28;20064;-86
2022/08/24 03:54:06;;;;;;;5.70;1.70;;;;;;;24.15;41.47;99987.81;5053054;28;20110;-86
2022/08/24 03:56:34;;;;;;;3.17;1.90;;;;;;;24.15;41.21;99978.91;5052941;28;20045;-86
2022/08/24 03:59:00;;;;;;;4.07;2.00;;;;;;;24.13;41.35;99981.78;5051132;28;20057;-86
2022/08/24 04:01:27;;;;;;;7.30;2.33;;;;;;;24.12;41.22;99982.78;5050980;28;20061;-86
2022/08/24 04:03:54;;;;;;;3.05;1.83;;;;;;;24.11;41.01;99980.28;5050674;28;20045;-86
2022/08/24 04:06:21;;;;;;;3.45;2.17;;;;;;;24.10;41.51;99978.56;5051250;28;20507;-86
2022/08/24 04:08:49;;;;;;;3.22;1.92;;;;;;;24.08;41.33;99982.25;5052514;28;20053;-86
2022/08/24 04:11:19;;;;;;;3.95;2.10;;;;;;;24.07;41.14;99985.13;5051932;28;20454;-85
2022/08/24 04:13:46;;;;;;;4.80;2.08;;;;;;;24.05;41.15;99981.75;5051023;28;20045;-85
2022/08/24 04:16:19;;;;;;;3.42;1.90;;;;;;;24.03;41.31;99981.91;5050489;28;20131;-85
2022/08/24 04:18:46;;;;;;;8.02;1.73;;;;;;;24.04;41.40;99991.66;5049424;28;20045;-85
2022/08/24 04:21:33;;;;;;;5.13;1.88;;;;;;;23.99;42.40;99988.66;5050711;28;20060;-85
2022/08/24 04:24:02;;;;;;;2.60;1.65;;;;;;;24.02;42.05;99988.31;5049493;28;20053;-86
2022/08/24 04:26:30;;;;;;;5.95;1.80;;;;;;;24.01;42.18;99985.78;5050655;28;20099;-84
2022/08/24 04:29:12;;;;;;;1.98;1.45;;;;;;;23.98;42.62;99988.81;5050577;28;20076;-85
2022/08/24 04:31:41;;;;;;;1.92;1.60;;;;;;;23.96;42.32;99999.75;5049667;28;20068;-85
2022/08/24 04:34:09;;;;;;;3.88;1.85;;;;;;;23.93;42.09;99994.72;5050726;28;20120;-87
2022/08/24 04:36:36;;;;;;;4.75;2.00;;;;;;;23.92;42.12;99993.03;5049486;28;20052;-85
2022/08/24 04:39:03;;;;;;;3.65;1.83;;;;;;;23.91;42.29;100000.25;5049245;28;20057;-85
2022/08/24 04:41:29;;;;;;;3.75;1.90;;;;;;;23.89;42.45;99991.50;5050449;28;20498;-85
2022/08/24 04:43:58;;;;;;;5.55;1.98;;;;;;;23.88;42.79;99992.53;5049329;28;20057;-87
2022/08/24 04:46:26;;;;;;;3.78;2.35;;;;;;;23.88;42.32;99997.91;5050451;28;20056;-87
2022/08/24 04:48:53;;;;;;;5.40;2.15;;;;;;;23.89;42.26;99998.75;5048915;28;20059;-87
2022/08/24 04:51:20;;;;;;;5.15;2.47;;;;;;;23.89;42.64;99996.06;5050131;28;20064;-85
2022/08/24 04:53:49;;;;;;;6.65;1.88;;;;;;;23.89;43.05;100004.94;5050060;28;20049;-86
2022/08/24 04:56:20;;;;;;;6.97;2.33;;;;;;;23.91;43.75;100007.47;5049238;28;20049;-85
2022/08/24 04:58:46;;;;;;;4.85;2.03;;;;;;;23.94;44.26;100005.31;5050665;28;20099;-85
2022/08/24 05:01:18;;;;;;;4.85;2.13;;;;;;;23.97;44.17;100012.19;5053653;28;20494;-86
2022/08/24 05:03:47;;;;;;;3.78;1.95;;;;;;;24.01;44.26;100008.16;5054162;28;20049;-85
2022/08/24 05:06:15;;;;;;;3.55;2.30;;;;;;;24.04;44.20;100015.03;5053872;28;20478;-84
2022/08/24 05:08:42;;;;;;;5.55;2.40;;;;;;;24.06;44.31;100021.91;5053527;28;20510;-84
2022/08/24 05:11:09;;;;;;;2.03;1.50;;;;;;;24.08;44.15;100009.13;5054558;28;20045;-83
2022/08/24 05:13:36;;;;;;;6.60;1.73;;;;;;;24.14;44.21;100023.78;5054657;28;20327;-83
2022/08/24 05:16:10;;;;;;;3.97;1.95;;;;;;;24.17;44.75;100019.91;5054875;28;20052;-83
2022/08/24 05:18:39;;;;;;;2.65;1.70;;;;;;;24.22;44.74;100019.41;5054569;28;20059;-83
2022/08/24 05:21:11;;;;;;;4.43;2.00;;;;;;;24.25;44.95;100024.47;5053948;28;20494;-83
2022/08/24 05:23:39;;;;;;;4.03;2.05;;;;;;;24.29;44.67;100031.19;5054185;28;20049;-84
2022/08/24 05:26:11;;;;;;;7.13;2.05;;;;;;;24.34;44.96;100029.63;5054508;28;20053;-83
2022/08/24 05:28:38;;;;;;;3.55;2.35;;;;;;;24.40;44.12;100032.66;5052868;28;20071;-83
2022/08/24 05:31:11;;;;;;;3.67;2.05;;;;;;;24.44;43.99;100031.28;5052764;28;20098;-84
2022/08/24 05:33:38;;;;;;;3.67;2.20;;;;;;;24.50;43.63;100038.69;5054597;28;20470;-83
2022/08/24 05:36:13;;;;;;;4.43;2.58;;;;;;;24.55;44.35;100033.63;5054518;28;20110;-84
2022/08/24 05:38:39;;;;;;;4.50;2.40;;;;;;;24.62;44.52;100041.84;5053799;28;20048;-84
2022/08/24 05:41:06;;;;;;;3.40;2.10;;;;;;;24.67;43.91;100050.22;5052886;28;20476;-85
2022/08/24 05:43:32;;;;;;;4.15;2.30;;;;;;;24.71;43.85;100043.50;5053714;28;20143;-85
2022/08/24 05:45:59;;;;;;;3.15;1.95;;;;;;;24.76;44.38;100045.66;5053861;28;20052;-84
2022/08/24 05:48:26;;;;;;;3.40;2.05;;;;;;;24.81;44.45;100054.06;5053638;28;20057;-85
2022/08/24 05:50:54;;;;;;;3.30;1.95;;;;;;;24.84;43.61;100045.66;5053666;28;20465;-85
2022/08/24 05:53:21;;;;;;;8.25;2.15;;;;;;;24.88;43.68;100048.84;5051815;28;20049;-84
2022/08/24 05:55:48;;;;;;;5.53;2.03;;;;;;;24.92;44.24;100052.88;5053226;28;20079;-85
2022/08/24 05:58:15;;;;;;;4.55;2.08;;;;;;;24.95;43.90;100052.53;5053443;28;20057;-83
2022/08/24 06:00:58;;;;;;;3.40;2.05;;;;;;;25.00;43.46;100045.78;5053196;28;20052;-85
2022/08/24 06:03:25;;;;;;;4.50;1.73;;;;;;;25.04;43.15;100055.19;5053295;28;20434;-84
2022/08/24 06:05:53;;;;;;;2.65;1.80;;;;;;;25.07;43.37;100054.81;5053566;28;20049;-83
2022/08/24 06:08:20;;;;;;;3.10;1.73;;;;;;;25.10;43.08;100058.00;5053349;28;20125;-84
2022/08/24 06:10:47;;;;;;;10.18;2.20;;;;;;;25.14;43.01;100060.34;5053046;28;20060;-83
2022/08/24 06:13:15;;;;;;;5.30;2.00;;;;;;;25.17;43.04;100055.47;5052719;28;20052;-84
2022/08/24 06:15:42;;;;;;;2.50;1.75;;;;;;;25.20;42.76;100055.06;5053422;28;20056;-85
2022/08/24 06:18:29;;;;;;;3.47;1.95;;;;;;;25.25;42.24;100062.66;5052790;28;20069;-83
2022/08/24 06:20:55;;;;;;;3.28;2.08;;;;;;;25.29;42.08;100060.44;5051249;28;20049;-82
2022/08/24 06:23:23;;;;;;;2.78;1.60;;;;;;;25.32;42.50;100068.16;5052147;28;20084;-81
2022/08/24 06:28:40;;;;;;;3.50;1.70;;;;;;;25.36;42.06;100064.94;5051985;28;20057;-82
2022/08/24 06:31:07;;;;;;;4.78;1.85;;;;;;;25.38;42.11;100068.28;5052337;28;20106;-81
2022/08/24 06:33:34;;;;;;;5.70;1.92;;;;;;;25.40;41.91;100072.66;5051803;28;20095;-83
2022/08/24 06:36:01;;;;;;;6.05;1.70;;;;;;;25.41;41.85;100077.06;5052386;28;20048;-82
2022/08/24 06:38:29;;;;;;;3.72;1.77;;;;;;;25.42;41.66;100084.13;5052156;28;20115;-82
2022/08/24 06:40:57;;;;;;;5.00;1.70;;;;;;;25.41;42.83;100088.66;5052145;28;20494;-82
2022/08/24 06:43:23;;;;;;;5.38;2.00;;;;;;;25.41;42.91;100085.97;5052077;28;20102;-81
2022/08/24 06:45:52;;;;;;;8.90;1.88;;;;;;;25.41;43.12;100093.22;5051383;28;20049;-82
2022/08/24 06:48:18;;;;;;;2.83;1.83;;;;;;;25.38;43.36;100089.84;5050687;28;20107;-84
2022/08/24 06:50:46;;;;;;;3.80;1.65;;;;;;;25.38;42.78;100095.25;5051369;28;20063;-82
2022/08/24 06:53:13;;;;;;;3.33;1.42;;;;;;;25.38;43.03;100094.41;5051793;28;20053;-82
2022/08/24 06:55:56;;;;;;;3.92;1.65;;;;;;;25.37;43.25;100096.25;5051520;28;20053;-82
2022/08/24 06:58:24;;;;;;;5.63;1.97;;;;;;;25.40;43.31;100096.91;5051295;28;20107;-83
2022/08/24 07:00:51;;;;;;;3.47;1.90;;;;;;;25.41;43.12;100093.22;5051418;28;20345;-82
2022/08/24 07:03:19;;;;;;;3.78;1.70;;;;;;;25.44;43.51;100092.84;5052190;28;20061;-83
2022/08/24 07:05:55;;;;;;;3.90;1.80;;;;;;;25.42;42.86;100093.03;5051571;28;20474;-85
2022/08/24 07:08:22;;;;;;;2.95;1.80;;;;;;;25.48;42.94;100092.31;5051383;28;20057;-83
2022/08/24 07:10:50;;;;;;;2.80;1.55;;;;;;;25.50;43.14;100094.84;5051628;28;20494;-85
2022/08/24 07:13:16;;;;;;;3.78;1.83;;;;;;;25.52;42.68;100100.88;5051562;28;20060;-86
2022/08/24 07:15:44;;;;;;;7.00;2.03;;;;;;;25.54;43.10;100104.25;5052020;28;20049;-83
2022/08/24 07:18:15;;;;;;;3.28;1.60;;;;;;;25.56;42.97;100104.94;5051940;28;20084;-84
2022/08/24 07:20:43;;;;;;;5.97;1.73;;;;;;;25.60;43.03;100100.88;5051694;28;20064;-83
2022/08/24 07:23:13;;;;;;;2.97;1.75;;;;;;;25.66;43.52;100106.56;5051861;28;20056;-83
2022/08/24 07:25:41;;;;;;;2.45;1.75;;;;;;;25.68;43.38;100099.97;5051672;28;20056;-83
2022/08/24 07:28:14;;;;;;;2.28;1.60;;;;;;;25.73;44.17;100103.00;5051978;28;20557;-83
2022/08/24 07:30:41;;;;;;;3.10;1.80;;;;;;;25.78;44.06;100110.53;5052010;28;20103;-83
2022/08/24 07:33:09;;;;;;;4.35;1.80;;;;;;;25.82;43.96;100114.53;5050613;28;20057;-83
2022/08/24 07:35:37;;;;;;;3.33;1.90;;;;;;;25.86;43.93;100106.91;5050478;28;20045;-84
2022/08/24 07:38:06;;;;;;;2.75;1.65;;;;;;;25.91;43.80;100117.19;5051370;28;20494;-80
2022/08/24 07:40:34;;;;;;;3.40;1.90;;;;;;;25.98;43.38;100118.16;5051304;28;20461;-82
2022/08/24 07:43:20;;;;;;;3.65;1.95;;;;;;;26.04;43.37;100114.72;5051820;28;20056;-83
2022/08/24 07:45:48;;;;;;;3.50;1.90;;;;;;;26.10;43.00;100116.72;5051091;28;20474;-83
2022/08/24 07:48:15;;;;;;;4.00;1.70;;;;;;;26.18;43.48;100117.63;5050976;28;20048;-84
2022/08/24 07:50:41;;;;;;;3.80;1.27;;;;;;;26.23;43.25;100121.47;5050549;28;20056;-83
2022/08/24 07:53:09;;;;;;;6.35;2.05;;;;;;;26.29;42.92;100119.94;5050630;28;20056;-84
2022/08/24 07:55:42;;;;;;;4.40;1.95;;;;;;;26.37;42.54;100122.56;5048998;28;20329;-84
2022/08/24 07:58:11;;;;;;;5.93;2.20;;;;;;;26.45;42.26;100126.19;5050520;28;20053;-85
2022/08/24 08:00:38;;;;;;;9.00;1.90;;;;;;;26.51;42.68;100120.91;5049000;28;20057;-85
2022/08/24 08:03:05;;;;;;;5.13;2.13;;;;;;;26.59;42.93;100129.94;5050638;28;20053;-86
2022/08/24 08:05:37;;;;;;;6.60;1.90;;;;;;;26.65;43.03;100132.75;5050062;28;20571;-83
2022/08/24 08:08:04;;;;;;;4.25;1.60;;;;;;;26.74;43.13;100133.53;5051662;28;20057;-81
2022/08/24 08:10:34;;;;;;;4.35;2.00;;;;;;;26.82;42.79;100129.88;5055051;28;20071;-82
2022/08/24 08:13:03;;;;;;;6.28;1.92;;;;;;;26.88;42.71;100137.22;5052567;28;20106;-84
2022/08/24 08:15:30;;;;;;;5.07;1.90;;;;;;;26.96;42.84;100140.91;5052005;28;20135;-83
2022/08/24 08:17:57;;;;;;;4.05;2.10;;;;;;;27.02;42.53;100141.00;5052131;28;20060;-84
2022/08/24 08:20:24;;;;;;;5.20;1.90;;;;;;;27.10;42.75;100142.75;5051541;28;20056;-83
2022/08/24 08:25:37;;;;;;;4.05;2.00;;;;;;;27.27;42.43;100150.66;5051770;28;20045;-84
2022/08/24 08:28:04;;;;;;;6.13;2.00;;;;;;;27.35;42.48;100147.84;5052758;28;20053;-84
2022/08/24 08:30:52;;;;;;;2.97;1.65;;;;;;;27.45;42.20;100143.00;5051995;28;20409;-85
2022/08/24 08:33:19;;;;;;;2.28;2.08;;;;;;;27.53;42.11;100152.88;5052270;28;20057;-82
2022/08/24 08:35:47;;;;;;;3.90;2.00;;;;;;;27.61;42.41;100146.53;5054617;28;20132;-84
2022/08/24 08:38:14;;;;;;;4.22;1.95;;;;;;;27.69;42.25;100149.13;5056165;28;20057;-83
2022/08/24 08:40:59;;;;;;;4.35;1.95;;;;;;;27.76;41.96;100154.59;5056443;28;20111;-84
2022/08/24 08:43:42;;;;;;;3.00;1.92;;;;;;;27.86;41.82;100154.28;5056060;28;20049;-84
2022/08/24 08:46:27;;;;;;;4.28;1.90;;;;;;;27.99;42.09;100150.06;5056316;28;20067;-83
2022/08/24 08:49:14;;;;;;;4.20;1.80;;;;;;;28.05;41.69;100152.81;5056369;28;20130;-84
2022/08/24 08:51:47;;;;;;;5.05;1.60;;;;;;;28.19;41.97;100148.34;5056429;28;20099;-84
2022/08/24 08:54:22;;;;;;;;;;;;;;;28.25;41.86;100145.91;5056581;28;20053;-84
2022/08/24 08:57:24;;;;;;;3.63;1.85;;;;;;;28.38;41.16;100147.91;5055761;28;19978;-85
2022/08/24 09:00:09;;;;;;;7.30;2.47;;;;;;;28.48;40.99;100151.13;5055893;28;20080;-84
2022/08/24 09:02:53;;;;;;;4.97;1.80;;;;;;;28.57;40.77;100149.09;5055615;28;20055;-85
2022/08/24 09:05:41;;;;;;;3.42;1.75;;;;;;;28.68;40.08;100155.84;5056232;28;20075;-84
2022/08/24 09:08:23;;;;;;;4.72;2.08;;;;;;;28.80;41.28;100156.97;5054941;28;20601;-84
2022/08/24 09:11:09;;;;;;;;;;;;;;;28.86;41.48;100147.22;5054860;28;20137;-83
2022/08/24 09:14:13;;;;;;;3.92;1.80;;;;;;;29.00;41.10;100149.00;5054534;28;19929;-82
2022/08/24 09:16:46;;;;;;;3.20;1.80;;;;;;;29.14;41.05;100151.78;5053961;28;20107;-82
2022/08/24 09:19:12;;;;;;;;;;;;;;;29.21;41.47;100155.34;5054086;28;20099;-82
2022/08/24 09:21:57;;;;;;;5.93;1.90;;;;;;;29.37;40.52;100150.59;5053978;28;19971;-82
2022/08/24 09:24:51;;;;;;;4.65;2.03;;;;;;;29.46;40.57;100157.56;5053792;28;20507;-83
2022/08/24 09:27:35;;;;;;;4.00;1.52;;;;;;;29.59;42.32;100158.66;5053994;28;20102;-82
2022/08/24 09:30:24;;;;;;;4.70;1.65;;;;;;;29.69;40.32;100158.25;5053627;28;20053;-81
2022/08/24 09:33:13;;;;;;;4.07;1.77;;;;;;;29.82;41.62;100160.19;5053807;28;20049;-84
2022/08/24 09:35:49;;;;;;;2.80;1.60;;;;;;;29.93;40.72;100154.13;5054040;28;20457;-84
2022/08/24 09:38:25;;;;;;;6.07;2.00;;;;;;;30.06;40.86;100157.91;5053437;28;20461;-84
2022/08/24 09:41:04;;;;;;;2.17;1.50;;;;;;;30.12;40.65;100149.81;5052025;28;20110;-84
2022/08/24 09:44:08;;;;;;;3.95;1.77;;;;;;;30.24;41.32;100154.63;5053565;28;20107;-83
2022/08/24 09:46:53;;;;;;;2.50;1.48;;;;;;;30.38;39.63;100147.31;5053706;28;20546;-83
2022/08/24 09:49:44;;;;;;;1.77;1.20;;;;;;;30.48;40.26;100158.59;5053496;28;20044;-81
2022/08/24 09:52:21;;;;;;;1.67;1.38;;;;;;;30.55;38.44;100142.28;5053507;28;20147;-83
2022/08/24 09:55:03;;;;;;;5.30;1.70;;;;;;;30.63;37.99;100149.38;5053599;28;20065;-82
2022/08/24 09:58:08;;;;;;;2.38;1.70;;;;;;;30.66;38.96;100154.38;5053825;28;20055;-84
2022/08/24 10:01:01;;;;;;;2.80;1.58;;;;;;;30.70;38.52;100152.94;5053608;28;20088;-82
2022/08/24 10:03:52;;;;;;;2.67;1.48;;;;;;;30.71;39.77;100143.72;5053831;28;20501;-82
2022/08/24 10:06:30;;;;;;;2.85;1.55;;;;;;;30.77;39.51;100140.19;5053650;28;20049;-83
2022/08/24 10:09:35;;;;;;;4.63;1.40;;;;;;;30.83;40.02;100143.13;5053636;28;20053;-83
2022/08/24 10:12:12;;;;;;;2.75;1.50;;;;;;;30.97;40.25;100146.59;5055840;28;20051;-84
2022/08/24 10:15:01;;;;;;;3.05;1.60;;;;;;;31.08;39.35;100146.81;5055221;28;20053;-84
2022/08/24 10:17:36;;;;;;;1.88;1.42;;;;;;;31.20;38.62;100141.53;5054204;28;20057;-85
2022/08/24 10:20:15;;;;;;;2.90;1.25;;;;;;;31.30;38.76;100140.22;5055548;28;20045;-85
2022/08/24 10:22:57;;;;;;;2.70;1.50;;;;;;;31.41;38.60;100138.75;5054755;28;20053;-84
2022/08/24 10:25:54;;;;;;;3.30;1.65;;;;;;;31.53;38.88;100139.72;5054919;28;20103;-84
2022/08/24 10:28:26;;;;;;;1.98;1.30;;;;;;;31.68;37.27;100138.59;5054234;28;20052;-85
2022/08/24 10:31:10;;;;;;;4.55;1.50;;;;;;;31.78;37.86;100136.25;5055070;28;20048;-85
2022/08/24 10:33:53;;;;;;;5.45;1.50;;;;;;;31.87;37.77;100130.53;5054201;28;20056;-85
2022/08/24 10:36:29;;;;;;;10.32;1.55;;;;;;;31.98;39.27;100132.56;5052849;28;20457;-84
2022/08/24 10:45:30;;;;;;;8.02;1.50;;;;;;;32.32;37.66;100129.56;5052657;28;20076;-85
2022/08/24 10:48:02;;;;;;;3.33;1.35;;;;;;;32.40;36.33;100123.00;5054049;28;20048;-86
2022/08/24 10:50:56;;;;;;;3.03;1.05;;;;;;;32.48;36.32;100128.22;5054643;28;20044;-86
2022/08/24 10:53:27;;;;;;;4.18;1.60;;;;;;;32.62;35.82;100137.91;5054678;28;20049;-86
2022/08/24 10:56:04;;;;;;;2.83;1.38;;;;;;;32.73;35.80;100132.75;5055240;28;20053;-85
2022/08/24 10:58:43;;;;;;;2.53;1.20;;;;;;;32.88;34.85;100135.09;5053756;28;20053;-85
2022/08/24 11:01:17;;;;;;;2.15;1.20;;;;;;;33.10;37.10;100126.50;5055058;28;20103;-85
2022/08/24 11:04:08;;;;;;;2.25;1.27;;;;;;;33.38;36.73;100128.66;5054184;28;20527;-85
2022/08/24 11:06:41;;;;;;;3.47;1.30;;;;;;;33.85;35.58;100126.34;5054107;28;20049;-84
2022/08/24 11:09:16;;;;;;;3.50;1.35;;;;;;;34.39;35.06;100120.03;5053591;28;20098;-85
2022/08/24 11:11:48;;;;;;;2.15;1.10;;;;;;;35.03;34.46;100121.16;5053134;28;20106;-84
2022/08/24 11:14:14;;;;;;;5.13;1.02;;;;;;;35.68;34.62;100119.16;5050629;28;20418;-84
2022/08/24 11:16:45;;;;;;;3.00;1.00;;;;;;;36.35;32.72;100115.84;5052075;28;20071;-84
2022/08/24 11:19:33;;;;;;;1.05;0.95;;;;;;;37.05;34.29;100128.31;5051507;28;20049;-84
2022/08/24 11:22:05;;;;;;;1.58;0.90;;;;;;;37.71;32.29;100113.72;5052021;28;20056;-83
2022/08/24 11:24:42;;;;;;;1.77;1.08;;;;;;;38.29;30.85;100118.56;5051245;28;20462;-84
2022/08/24 11:27:14;;;;;;;2.28;1.10;;;;;;;38.84;30.84;100118.31;5051609;28;20053;-84
2022/08/24 11:29:50;;;;;;;1.40;0.80;;;;;;;39.32;29.25;100117.38;5051094;28;20052;-84
2022/08/24 11:32:24;;;;;;;2.58;1.00;;;;;;;39.77;29.43;100116.94;5051900;28;20053;-84
2022/08/24 11:34:51;;;;;;;1.73;0.90;;;;;;;40.20;28.75;100121.31;5051485;28;20079;-84
2022/08/24 11:37:22;;;;;;;1.65;0.93;;;;;;;40.59;27.38;100114.38;5051737;28;20052;-84
2022/08/24 11:39:54;;;;;;;4.60;1.10;;;;;;;40.98;26.86;100110.06;5051232;28;20083;-83
2022/08/24 11:42:31;;;;;;;7.32;1.38;;;;;;;41.33;26.42;100115.72;5051426;28;20045;-84
2022/08/24 11:45:22;;;;;;;2.42;1.15;;;;;;;41.65;26.33;100112.44;5051643;28;20057;-84
2022/08/24 11:48:03;;;;;;;2.27;0.80;;;;;;;42.01;25.40;100111.34;5051542;28;20048;-81
2022/08/24 11:50:39;;;;;;;;;;;;;;;42.31;28.74;100114.09;5051590;28;20061;-82
2022/08/24 11:53:28;;;;;;;1.73;0.82;;;;;;;42.67;25.64;100119.22;5051576;28;19925;-81
2022/08/24 11:56:00;;;;;;;1.65;1.10;;;;;;;42.93;24.85;100109.78;5051685;28;20465;-81
2022/08/24 11:58:37;;;;;;;1.42;0.88;;;;;;;43.14;25.48;100115.03;5051717;28;20115;-81
2022/08/24 12:01:25;;;;;;;2.35;1.02;;;;;;;43.35;25.70;100107.25;5051473;28;20057;-80
2022/08/24 12:04:29;;;;;;;2.88;0.98;;;;;;;43.58;25.12;100105.53;5051003;28;20495;-81
2022/08/24 12:07:09;;;;;;;2.33;1.00;;;;;;;43.80;22.59;100101.28;5051239;28;20552;-81
2022/08/24 12:10:19;;;;;;;1.13;0.90;;;;;;;43.93;24.45;100096.91;5048728;28;20546;-81